Time;durP1;ratioP1;P1;durP2;ratioP2;P2;SDS_P1;SDS_P2;PMS_P1;PMS_P2;Temp;Humidity;BMP_temperature;BMP_pressure;BME280_temperature;BME280_humidity;BME280_pressure;Samples;Min_cycle;Max_cycle;Signal;HPM_P1;HPM_P2
2023/07/13 00:00:15;;;;;;;3.23;2.93;;;23.80;83.30;;;;;;10495436;28;20240;-78
2023/07/13 00:05:17;;;;;;;1.83;1.73;;;23.80;83.10;;;;;;10502083;28;20242;-75
2023/07/13 00:10:21;;;;;;;3.00;1.70;;;23.80;79.40;;;;;;10495872;28;20245;-77
2023/07/13 00:15:26;;;;;;;2.37;2.00;;;23.70;79.90;;;;;;10496097;28;20205;-77
2023/07/13 00:20:28;;;;;;;3.03;2.13;;;23.60;79.60;;;;;;10487894;28;20240;-77
2023/07/13 00:25:31;;;;;;;2.60;1.70;;;23.60;81.50;;;;;;10506153;28;20227;-75
2023/07/13 00:30:33;;;;;;;1.60;1.50;;;23.50;76.60;;;;;;10512843;28;20274;-77
2023/07/13 00:35:35;;;;;;;2.10;2.00;;;23.50;78.10;;;;;;10520765;28;20884;-77
2023/07/13 00:40:39;;;;;;;1.90;1.80;;;23.40;79.10;;;;;;10484642;28;20597;-77
2023/07/13 00:46:11;;;;;;;2.43;1.80;;;23.40;76.90;;;;;;10497450;28;20227;-76
2023/07/13 00:51:14;;;;;;;2.27;1.97;;;23.30;79.50;;;;;;10527935;28;20281;-77
2023/07/13 00:56:18;;;;;;;1.80;1.70;;;23.30;82.30;;;;;;10505004;28;20195;-78
2023/07/13 01:01:20;;;;;;;2.60;1.70;;;23.30;78.00;;;;;;10492314;28;20290;-78
2023/07/13 01:06:23;;;;;;;2.10;1.90;;;23.20;82.50;;;;;;10488062;28;20197;-76
2023/07/13 01:11:27;;;;;;;2.10;1.90;;;23.20;78.10;;;;;;10509223;28;20612;-77
2023/07/13 01:16:31;;;;;;;1.87;1.77;;;23.20;80.20;;;;;;10509893;28;20213;-77
2023/07/13 01:21:35;;;;;;;7.03;2.03;;;23.20;77.90;;;;;;10503104;28;20277;-76
2023/07/13 01:26:37;;;;;;;1.90;1.70;;;23.20;78.30;;;;;;10519443;28;20205;-77
2023/07/13 01:31:44;;;;;;;4.40;1.77;;;23.10;79.20;;;;;;10516095;28;20224;-76
2023/07/13 01:36:47;;;;;;;4.00;2.37;;;23.00;79.20;;;;;;10510581;28;20197;-77
2023/07/13 01:41:50;;;;;;;3.17;2.47;;;23.00;79.90;;;;;;10489827;28;20228;-76
2023/07/13 01:46:54;;;;;;;2.10;2.00;;;22.90;79.60;;;;;;10514146;28;20227;-76
2023/07/13 01:51:58;;;;;;;2.30;2.07;;;22.80;78.20;;;;;;10508375;28;20258;-76
2023/07/13 01:57:00;;;;;;;2.33;2.13;;;22.80;82.10;;;;;;10490320;28;20205;-75
2023/07/13 02:02:02;;;;;;;3.00;2.70;;;22.70;81.70;;;;;;10495838;28;20298;-76
2023/07/13 02:07:06;;;;;;;3.20;2.23;;;22.60;78.90;;;;;;10501354;28;20313;-76
2023/07/13 02:12:08;;;;;;;5.10;2.53;;;22.50;79.30;;;;;;10524980;28;20244;-75
2023/07/13 02:17:11;;;;;;;3.93;2.40;;;22.30;80.00;;;;;;10491791;28;20185;-76
2023/07/13 02:22:15;;;;;;;2.60;2.13;;;22.20;80.60;;;;;;10511717;28;20587;-76
2023/07/13 02:27:17;;;;;;;2.47;2.33;;;22.10;80.40;;;;;;10499375;28;20213;-76
2023/07/13 02:32:19;;;;;;;2.80;2.60;;;22.00;80.10;;;;;;10496566;28;20236;-75
2023/07/13 02:37:22;;;;;;;2.27;1.90;;;21.90;80.30;;;;;;10512717;28;20647;-77
2023/07/13 02:42:24;;;;;;;4.40;2.30;;;21.70;78.70;;;;;;10488047;28;20277;-77
2023/07/13 02:47:27;;;;;;;3.00;2.80;;;21.60;79.20;;;;;;10484503;28;20301;-76
2023/07/13 02:52:31;;;;;;;2.57;2.37;;;21.50;79.00;;;;;;10493542;28;20233;-77
2023/07/13 02:57:33;;;;;;;2.83;2.63;;;21.40;79.90;;;;;;10490334;28;20208;-76
2023/07/13 03:02:36;;;;;;;6.50;2.70;;;21.40;79.30;;;;;;10519644;28;20255;-77
2023/07/13 03:07:40;;;;;;;2.93;2.63;;;21.30;79.70;;;;;;10491573;28;20217;-76
2023/07/13 03:12:42;;;;;;;2.90;2.70;;;21.20;79.80;;;;;;10489720;28;20232;-76
2023/07/13 03:17:53;;;;;;;2.50;2.30;;;21.20;79.40;;;;;;10475044;28;20207;-76
2023/07/13 03:22:57;;;;;;;3.87;2.40;;;21.10;79.60;;;;;;10505964;28;20270;-78
2023/07/13 03:27:59;;;;;;;4.40;2.50;;;21.00;79.50;;;;;;10490904;28;20243;-76
2023/07/13 03:33:03;;;;;;;3.00;2.80;;;21.00;80.10;;;;;;10500609;28;20233;-74
2023/07/13 03:38:06;;;;;;;3.20;2.77;;;21.10;80.00;;;;;;10458940;28;20197;-76
2023/07/13 03:43:08;;;;;;;2.70;2.60;;;21.20;80.90;;;;;;10513663;28;20220;-78
2023/07/13 03:48:11;;;;;;;2.63;2.43;;;21.20;82.80;;;;;;10491255;28;20220;-76
2023/07/13 03:53:15;;;;;;;2.40;2.30;;;21.30;81.60;;;;;;10495053;28;20279;-76
2023/07/13 03:58:28;;;;;;;2.73;2.50;;;21.40;82.80;;;;;;10484704;28;20203;-77
2023/07/13 04:03:34;;;;;;;5.90;2.80;;;21.50;84.40;;;;;;10487287;28;20229;-76
2023/07/13 04:08:38;;;;;;;1.97;1.87;;;21.50;84.30;;;;;;10486163;28;20709;-74
2023/07/13 04:13:41;;;;;;;5.23;2.67;;;21.60;85.50;;;;;;10496392;28;20594;-77
2023/07/13 04:18:43;;;;;;;2.73;2.53;;;21.70;83.10;;;;;;10497452;28;20206;-77
2023/07/13 04:23:46;;;;;;;3.77;2.70;;;21.70;85.00;;;;;;10521409;28;20244;-77
2023/07/13 04:28:49;;;;;;;7.03;2.50;;;21.70;84.70;;;;;;10514836;28;20222;-76
2023/07/13 04:33:51;;;;;;;2.83;2.47;;;21.80;84.60;;;;;;10515707;28;20297;-76
2023/07/13 04:38:55;;;;;;;3.67;2.60;;;21.90;83.50;;;;;;10516257;28;20208;-74
2023/07/13 04:43:57;;;;;;;3.20;2.90;;;22.00;81.70;;;;;;10518228;28;20672;-76
2023/07/13 04:49:00;;;;;;;2.53;2.33;;;22.00;80.80;;;;;;10514563;28;20299;-75
2023/07/13 04:54:05;;;;;;;3.00;2.70;;;22.10;77.10;;;;;;10512629;28;20225;-76
2023/07/13 04:59:07;;;;;;;2.63;2.40;;;22.10;82.50;;;;;;10510051;28;20934;-77
2023/07/13 05:04:09;;;;;;;4.43;2.50;;;22.10;81.20;;;;;;10492793;28;20196;-77
2023/07/13 05:09:13;;;;;;;3.30;2.87;;;22.20;82.50;;;;;;10511640;28;20274;-79
2023/07/13 05:14:16;;;;;;;2.90;2.60;;;22.20;83.30;;;;;;10493446;28;20201;-77
2023/07/13 05:19:18;;;;;;;2.67;2.57;;;22.20;82.60;;;;;;10516144;28;20383;-76
2023/07/13 05:24:21;;;;;;;3.90;2.80;;;22.40;84.10;;;;;;10507401;28;20247;-76
2023/07/13 05:29:24;;;;;;;2.97;2.77;;;22.50;82.50;;;;;;10513233;28;20770;-75
2023/07/13 05:34:29;;;;;;;4.17;3.03;;;22.60;82.70;;;;;;10519843;22;20264;-78
2023/07/13 05:39:36;;;;;;;3.00;2.50;;;22.70;79.50;;;;;;10502045;28;20193;-78
2023/07/13 05:44:38;;;;;;;2.97;2.77;;;22.80;79.60;;;;;;10486873;28;20236;-78
2023/07/13 05:49:41;;;;;;;2.90;2.63;;;22.90;79.80;;;;;;10504055;28;20304;-77
2023/07/13 05:54:44;;;;;;;3.43;2.83;;;22.90;77.20;;;;;;10501929;28;20221;-78
2023/07/13 05:59:46;;;;;;;2.90;2.60;;;23.00;78.20;;;;;;10478637;28;20213;-78
2023/07/13 06:04:48;;;;;;;3.20;3.00;;;23.00;77.30;;;;;;10496488;28;20258;-76
2023/07/13 06:09:52;;;;;;;4.20;2.87;;;23.00;79.00;;;;;;10476425;28;20241;-77
2023/07/13 06:14:54;;;;;;;4.10;2.10;;;22.90;78.10;;;;;;10497849;28;20208;-79
2023/07/13 06:19:56;;;;;;;3.10;2.90;;;23.00;74.90;;;;;;10497251;28;20201;-79
2023/07/13 06:24:59;;;;;;;4.00;2.67;;;23.00;74.40;;;;;;10478064;28;20212;-79
2023/07/13 06:30:01;;;;;;;4.07;2.30;;;23.00;74.00;;;;;;10448202;28;20213;-79
2023/07/13 06:35:04;;;;;;;2.40;2.30;;;23.10;73.40;;;;;;10497621;28;20239;-79
2023/07/13 06:40:09;;;;;;;2.33;2.10;;;23.20;76.60;;;;;;10499079;28;20553;-79
2023/07/13 06:45:11;;;;;;;2.97;2.10;;;23.20;74.50;;;;;;10497347;28;20213;-79
2023/07/13 06:50:14;;;;;;;2.40;2.30;;;23.40;75.60;;;;;;10497104;28;20218;-80
2023/07/13 06:55:17;;;;;;;2.40;2.20;;;23.70;70.70;;;;;;10479569;28;20572;-80
2023/07/13 07:00:19;;;;;;;2.70;2.00;;;24.00;72.80;;;;;;10497589;28;20209;-80
2023/07/13 07:05:22;;;;;;;2.70;2.10;;;24.40;71.60;;;;;;10479205;28;20618;-79
2023/07/13 07:10:26;;;;;;;4.33;2.20;;;24.70;70.30;;;;;;10478787;28;20239;-79
2023/07/13 07:15:28;;;;;;;2.67;1.57;;;24.70;68.10;;;;;;10497241;28;20239;-79
2023/07/13 07:20:32;;;;;;;1.87;1.77;;;24.80;68.30;;;;;;10496936;28;20225;-79
2023/07/13 07:25:41;;;;;;;1.90;1.57;;;25.00;68.20;;;;;;10498274;28;20279;-79
2023/07/13 07:30:43;;;;;;;3.63;2.03;;;25.20;64.70;;;;;;10490245;28;20248;-78
2023/07/13 07:35:45;;;;;;;2.87;1.80;;;25.50;65.60;;;;;;10496300;28;20221;-76
2023/07/13 07:40:49;;;;;;;2.67;1.70;;;25.80;66.50;;;;;;10497615;28;20244;-79
2023/07/13 07:45:51;;;;;;;1.63;1.50;;;26.20;62.70;;;;;;10487279;28;20201;-79
2023/07/13 07:50:53;;;;;;;3.70;1.80;;;26.60;61.70;;;;;;10514375;28;20251;-79
2023/07/13 07:55:56;;;;;;;1.93;1.80;;;26.90;59.70;;;;;;10514712;28;20208;-79
2023/07/13 08:01:04;;;;;;;2.20;1.60;;;27.40;60.80;;;;;;10512008;28;20225;-80
2023/07/13 08:06:06;;;;;;;10.60;2.10;;;27.80;59.60;;;;;;10503427;28;20228;-80
2023/07/13 08:11:11;;;;;;;4.70;2.13;;;28.30;58.90;;;;;;10487727;28;20237;-80
2023/07/13 08:16:13;;;;;;;2.00;1.90;;;28.80;57.50;;;;;;10504421;28;20668;-79
2023/07/13 08:21:15;;;;;;;2.17;1.77;;;29.20;57.00;;;;;;10504364;28;20209;-80
2023/07/13 08:26:19;;;;;;;1.70;1.60;;;29.50;55.00;;;;;;10504454;28;20208;-80
2023/07/13 08:31:21;;;;;;;1.77;1.53;;;29.80;55.80;;;;;;10487331;28;20221;-80
2023/07/13 08:36:23;;;;;;;1.73;1.40;;;30.10;55.70;;;;;;10503833;28;20197;-80
2023/07/13 08:41:53;;;;;;;2.67;1.37;;;30.40;54.80;;;;;;10517405;22;20240;-80
2023/07/13 08:46:59;;;;;;;2.70;1.50;;;30.60;51.10;;;;;;10484107;28;20197;-80
2023/07/13 08:52:07;;;;;;;2.00;1.40;;;30.60;54.00;;;;;;10503534;28;20231;-80
2023/07/13 08:57:15;;;;;;;3.03;1.43;;;30.80;53.40;;;;;;10503067;28;20197;-80
2023/07/13 09:02:27;;;;;;;1.93;1.70;;;30.90;53.20;;;;;;10503468;28;20240;-81
2023/07/13 09:07:41;;;;;;;1.83;1.73;;;30.80;53.40;;;;;;10494258;28;20216;-80
2023/07/13 09:12:59;;;;;;;9.13;2.17;;;30.50;52.60;;;;;;10491690;28;20236;-80
2023/07/13 09:18:06;;;;;;;2.00;1.80;;;30.50;53.50;;;;;;10496488;28;20280;-80
2023/07/13 09:23:15;;;;;;;3.80;1.60;;;30.50;52.90;;;;;;10503341;28;20307;-79
2023/07/13 09:28:22;;;;;;;2.13;1.40;;;30.40;53.30;;;;;;10502263;28;20232;-81
2023/07/13 09:33:24;;;;;;;1.93;1.73;;;30.10;52.10;;;;;;10502305;28;20216;-81
2023/07/13 09:38:29;;;;;;;2.90;1.60;;;30.30;51.10;;;;;;10484319;28;20687;-81
2023/07/13 09:43:32;;;;;;;1.93;1.67;;;30.70;52.30;;;;;;10509680;28;20243;-81
2023/07/13 09:48:36;;;;;;;2.83;1.63;;;30.80;52.70;;;;;;10502114;28;20707;-80
2023/07/13 09:53:38;;;;;;;2.73;1.80;;;30.70;51.50;;;;;;10469949;28;20260;-81
2023/07/13 09:58:44;;;;;;;1.53;1.40;;;30.30;53.20;;;;;;10510812;28;20251;-82
2023/07/13 10:03:54;;;;;;;2.50;1.83;;;30.70;51.30;;;;;;10502556;28;20244;-82
2023/07/13 10:08:58;;;;;;;2.00;1.70;;;31.80;50.90;;;;;;10500753;28;20330;-81
2023/07/13 10:14:03;;;;;;;2.70;1.90;;;32.50;50.80;;;;;;10500753;28;20208;-81
2023/07/13 10:19:11;;;;;;;1.93;1.70;;;33.10;51.10;;;;;;10493320;28;20295;-81
2023/07/13 10:24:18;;;;;;;1.97;1.50;;;33.70;49.50;;;;;;10480685;28;20270;-80
2023/07/13 10:29:24;;;;;;;1.83;1.50;;;34.00;48.80;;;;;;10500405;28;20259;-82
2023/07/13 10:34:27;;;;;;;3.37;2.43;;;33.40;47.20;;;;;;10504867;28;20216;-80
2023/07/13 10:39:31;;;;;;;3.60;2.10;;;32.60;48.10;;;;;;10478667;28;20205;-80
2023/07/13 10:44:35;;;;;;;1.80;1.70;;;31.70;49.50;;;;;;10483348;28;20760;-81
2023/07/13 10:49:38;;;;;;;2.07;1.90;;;31.00;49.40;;;;;;10500208;28;20221;-78
2023/07/13 10:54:42;;;;;;;1.63;1.53;;;30.40;52.50;;;;;;10501090;28;20255;-80
2023/07/13 10:59:49;;;;;;;1.70;1.60;;;30.00;51.40;;;;;;10481994;28;20216;-80
2023/07/13 11:04:54;;;;;;;2.50;1.73;;;29.70;51.40;;;;;;10480369;28;20206;-80
2023/07/13 11:09:58;;;;;;;5.30;2.17;;;29.40;53.10;;;;;;10468604;28;20216;-80
2023/07/13 11:15:13;;;;;;;2.67;1.77;;;29.10;52.00;;;;;;10499040;28;20228;-81
2023/07/13 11:20:34;;;;;;;1.67;1.57;;;28.90;53.30;;;;;;10498258;28;20568;-80
2023/07/13 11:25:38;;;;;;;2.80;1.80;;;28.80;52.20;;;;;;10477272;28;20205;-79
2023/07/13 11:30:44;;;;;;;2.77;1.97;;;28.60;54.30;;;;;;10510215;22;20259;-79
2023/07/13 11:35:58;;;;;;;2.23;2.03;;;28.50;53.80;;;;;;10489989;28;20232;-78
2023/07/13 11:41:04;;;;;;;5.83;1.97;;;28.30;53.60;;;;;;10489700;28;20312;-77
2023/07/13 11:46:15;;;;;;;1.90;1.80;;;27.90;54.80;;;;;;10489155;28;20209;-77
2023/07/13 11:51:23;;;;;;;2.97;2.00;;;27.80;53.50;;;;;;10484692;28;20652;-79
2023/07/13 11:56:26;;;;;;;2.47;2.10;;;27.70;53.20;;;;;;10471017;28;20604;-78
2023/07/13 12:01:33;;;;;;;2.40;2.10;;;27.50;54.40;;;;;;10471382;28;20213;-78
2023/07/13 12:06:39;;;;;;;2.47;2.00;;;27.50;53.20;;;;;;10483102;28;20207;-78
2023/07/13 12:11:42;;;;;;;2.50;2.30;;;27.50;56.70;;;;;;10489477;28;20225;-78
2023/07/13 12:16:48;;;;;;;2.93;1.97;;;27.50;55.20;;;;;;10486968;28;20288;-77
2023/07/13 12:21:53;;;;;;;2.50;2.00;;;27.50;55.00;;;;;;10470780;28;20217;-78
2023/07/13 12:27:01;;;;;;;2.60;2.23;;;27.60;53.30;;;;;;10488293;28;20268;-78
2023/07/13 12:32:10;;;;;;;8.93;2.50;;;27.60;53.80;;;;;;10491061;28;20232;-78
2023/07/13 12:37:13;;;;;;;6.30;3.10;;;27.70;53.40;;;;;;10495500;28;20228;-78
2023/07/13 12:42:23;;;;;;;6.13;2.33;;;27.80;53.00;;;;;;10496322;28;20306;-79
2023/07/13 12:47:27;;;;;;;4.30;2.40;;;27.80;53.10;;;;;;10494713;28;20472;-78
2023/07/13 12:52:32;;;;;;;2.37;1.73;;;27.80;53.30;;;;;;10495527;28;20271;-77
2023/07/13 12:57:42;;;;;;;5.70;2.00;;;27.80;53.80;;;;;;10495153;28;20802;-79
2023/07/13 13:02:46;;;;;;;3.10;1.87;;;27.70;53.70;;;;;;10495510;28;20259;-77
2023/07/13 13:07:48;;;;;;;8.17;2.67;;;27.60;55.00;;;;;;10494540;28;20201;-78
2023/07/13 13:12:50;;;;;;;8.13;2.20;;;27.60;54.50;;;;;;10477503;28;20598;-78
2023/07/13 13:17:54;;;;;;;2.30;2.10;;;27.50;54.10;;;;;;10492795;28;20259;-76
2023/07/13 13:22:56;;;;;;;8.00;1.97;;;27.40;53.10;;;;;;10494734;28;20217;-78
2023/07/13 13:27:58;;;;;;;5.27;2.20;;;27.30;52.60;;;;;;10494195;28;20676;-77
2023/07/13 13:33:02;;;;;;;2.03;1.93;;;27.30;52.00;;;;;;10494227;28;20664;-77
2023/07/13 13:38:10;;;;;;;2.30;2.10;;;27.30;53.20;;;;;;10475349;28;20209;-76
2023/07/13 13:43:19;;;;;;;2.40;2.20;;;27.20;54.30;;;;;;10492528;28;20217;-79
2023/07/13 13:48:31;;;;;;;2.50;1.90;;;27.20;55.00;;;;;;10492703;28;20232;-78
2023/07/13 13:53:33;;;;;;;2.17;1.93;;;27.20;53.20;;;;;;10493169;28;20253;-76
2023/07/13 13:58:35;;;;;;;2.33;2.13;;;27.10;53.10;;;;;;10487526;28;20708;-78
2023/07/13 14:03:38;;;;;;;3.20;2.17;;;27.00;54.10;;;;;;10488374;28;20217;-77
2023/07/13 14:08:40;;;;;;;2.93;2.47;;;27.10;52.40;;;;;;10491723;28;20197;-77
2023/07/13 14:13:55;;;;;;;3.00;2.07;;;27.20;52.60;;;;;;10492193;28;20233;-75
2023/07/13 14:18:59;;;;;;;3.60;2.40;;;27.40;50.90;;;;;;10490791;28;20201;-76
2023/07/13 14:24:02;;;;;;;4.90;2.30;;;27.50;51.20;;;;;;10491642;28;20256;-78
2023/07/13 14:29:11;;;;;;;3.57;2.07;;;27.30;51.70;;;;;;10472994;28;20201;-76
2023/07/13 14:34:14;;;;;;;1.93;1.83;;;27.30;54.00;;;;;;10487146;28;20241;-77
2023/07/13 14:39:20;;;;;;;2.17;2.07;;;27.30;52.80;;;;;;10490323;28;20624;-78
2023/07/13 14:44:25;;;;;;;3.67;1.90;;;27.30;51.80;;;;;;10491226;28;20221;-78
2023/07/13 14:49:30;;;;;;;3.87;2.40;;;27.30;51.60;;;;;;10490049;28;20193;-78
2023/07/13 14:54:32;;;;;;;2.13;1.93;;;27.30;52.70;;;;;;10472322;28;20236;-77
2023/07/13 14:59:35;;;;;;;4.40;2.27;;;27.50;53.00;;;;;;10489896;28;20209;-77
2023/07/13 15:04:39;;;;;;;1.83;1.73;;;27.60;51.80;;;;;;10470913;28;20743;-77
2023/07/13 15:09:41;;;;;;;10.50;2.60;;;27.50;52.40;;;;;;10472193;28;20672;-78
2023/07/13 15:14:43;;;;;;;5.33;2.10;;;27.30;52.60;;;;;;10472275;28;20311;-77
2023/07/13 15:19:47;;;;;;;2.27;1.60;;;27.20;51.60;;;;;;10470477;28;20726;-77
2023/07/13 15:24:49;;;;;;;3.00;2.10;;;27.00;52.60;;;;;;10490607;28;20645;-77
2023/07/13 15:29:51;;;;;;;1.80;1.70;;;26.90;52.20;;;;;;10489062;28;20575;-77
2023/07/13 15:34:54;;;;;;;2.23;2.03;;;26.90;52.80;;;;;;10508647;28;20243;-78
2023/07/13 15:39:56;;;;;;;2.20;2.10;;;26.90;51.90;;;;;;10530957;28;20288;-76
2023/07/13 15:45:01;;;;;;;3.10;2.40;;;26.80;53.40;;;;;;10534904;28;20298;-76
2023/07/13 15:50:05;;;;;;;2.63;2.43;;;26.70;52.60;;;;;;10530536;28;20600;-78
2023/07/13 15:55:11;;;;;;;2.10;2.00;;;26.60;51.50;;;;;;10517190;28;20696;-79
2023/07/13 16:00:20;;;;;;;2.40;2.20;;;26.60;52.00;;;;;;10530916;28;20283;-78
2023/07/13 16:05:24;;;;;;;3.10;2.37;;;26.60;52.20;;;;;;10483600;28;20624;-78
2023/07/13 16:10:32;;;;;;;3.30;2.13;;;26.50;52.30;;;;;;10520408;28;20278;-77
2023/07/13 16:15:34;;;;;;;2.17;2.03;;;26.50;52.30;;;;;;10512625;28;20221;-76
2023/07/13 16:20:38;;;;;;;3.13;1.97;;;26.40;52.30;;;;;;10514903;28;20304;-77
2023/07/13 16:25:40;;;;;;;3.00;2.10;;;26.40;52.50;;;;;;10525575;28;20642;-76
2023/07/13 16:30:43;;;;;;;1.90;1.80;;;26.30;52.60;;;;;;10527681;28;20221;-77
2023/07/13 16:35:46;;;;;;;7.07;2.00;;;26.30;52.50;;;;;;10511733;28;20274;-77
2023/07/13 16:40:49;;;;;;;3.73;2.33;;;26.30;53.60;;;;;;10536634;28;20259;-77
2023/07/13 16:45:52;;;;;;;3.13;2.00;;;26.30;53.50;;;;;;10534629;28;20204;-76
2023/07/13 16:50:57;;;;;;;2.00;1.90;;;26.30;53.30;;;;;;10535570;28;20691;-77
2023/07/13 16:56:01;;;;;;;2.73;2.17;;;26.20;53.40;;;;;;10534933;28;20216;-79
2023/07/13 17:01:04;;;;;;;7.23;2.10;;;26.20;53.40;;;;;;10535038;28;20219;-78
2023/07/13 17:06:24;;;;;;;1.87;1.77;;;26.20;53.30;;;;;;10520868;28;20212;-77
2023/07/13 17:11:30;;;;;;;2.20;2.10;;;26.20;53.70;;;;;;10535427;28;20753;-76
2023/07/13 17:16:32;;;;;;;2.13;2.00;;;26.20;54.70;;;;;;10533754;28;20209;-76
2023/07/13 17:21:35;;;;;;;5.27;2.70;;;26.10;54.20;;;;;;10529473;28;20242;-77
2023/07/13 17:26:38;;;;;;;1.93;1.80;;;26.10;54.40;;;;;;10516491;28;20638;-77
2023/07/13 17:31:40;;;;;;;2.50;2.30;;;26.10;54.30;;;;;;10532518;22;20249;-78
2023/07/13 17:36:44;;;;;;;2.43;1.60;;;26.00;55.50;;;;;;10499472;28;20205;-78
2023/07/13 17:41:47;;;;;;;1.87;1.77;;;26.00;54.40;;;;;;10493471;28;20255;-78
2023/07/13 17:46:49;;;;;;;2.40;2.00;;;25.90;54.80;;;;;;10478892;28;20692;-78
2023/07/13 17:51:52;;;;;;;3.00;2.10;;;25.80;55.00;;;;;;10496621;28;20300;-78
2023/07/13 17:56:54;;;;;;;2.43;2.23;;;25.80;55.40;;;;;;10499028;28;20575;-79
2023/07/13 18:01:57;;;;;;;2.70;2.10;;;25.80;53.80;;;;;;10497618;28;20221;-79
2023/07/13 18:07:08;;;;;;;2.27;2.10;;;25.80;55.10;;;;;;10478018;28;20275;-79
2023/07/13 18:12:10;;;;;;;2.33;2.13;;;25.70;54.80;;;;;;10479992;28;20763;-79
2023/07/13 18:17:14;;;;;;;4.17;2.17;;;25.60;54.90;;;;;;10497696;28;20209;-79
2023/07/13 18:22:18;;;;;;;2.50;2.20;;;25.60;54.60;;;;;;10495908;28;20217;-78
2023/07/13 18:27:20;;;;;;;4.20;2.50;;;25.50;55.20;;;;;;10495378;28;20202;-79
2023/07/13 18:32:27;;;;;;;2.60;2.00;;;25.50;55.10;;;;;;10476338;28;20249;-78
2023/07/13 18:37:32;;;;;;;2.90;2.40;;;25.40;56.50;;;;;;10498492;28;20208;-80
2023/07/13 18:42:34;;;;;;;3.07;2.67;;;25.40;56.90;;;;;;10497612;28;20225;-79
2023/07/13 18:47:37;;;;;;;4.23;2.70;;;25.40;57.00;;;;;;10497526;28;20205;-79
2023/07/13 18:52:40;;;;;;;2.47;2.37;;;25.30;58.10;;;;;;10496946;28;20225;-79
2023/07/13 18:57:42;;;;;;;2.40;2.20;;;25.20;59.60;;;;;;10477991;28;20197;-79
2023/07/13 19:02:44;;;;;;;2.80;2.17;;;25.20;57.70;;;;;;10497048;28;20263;-80
2023/07/13 19:07:48;;;;;;;3.07;2.33;;;25.10;58.50;;;;;;10497899;28;20256;-80
2023/07/13 19:12:54;;;;;;;3.47;2.37;;;25.00;60.00;;;;;;10496411;28;20352;-79
2023/07/13 19:17:57;;;;;;;3.60;2.70;;;25.10;59.00;;;;;;10476930;28;20185;-78
2023/07/13 19:23:05;;;;;;;2.00;1.90;;;25.00;59.80;;;;;;10497618;28;20221;-79
2023/07/13 19:28:31;;;;;;;3.00;2.70;;;24.90;60.90;;;;;;10479372;28;20201;-79
2023/07/13 19:33:33;;;;;;;3.10;2.90;;;24.90;59.70;;;;;;10495713;28;20255;-79
2023/07/13 19:38:37;;;;;;;2.00;1.90;;;24.90;61.60;;;;;;10497225;28;20773;-79
2023/07/13 19:43:39;;;;;;;2.70;2.10;;;24.90;59.30;;;;;;10485001;28;20213;-79
2023/07/13 19:48:44;;;;;;;3.53;3.13;;;24.80;60.10;;;;;;10468007;28;20263;-78
2023/07/13 19:53:47;;;;;;;2.77;2.37;;;24.80;62.20;;;;;;10488145;28;20588;-78
2023/07/13 19:58:50;;;;;;;5.10;2.40;;;24.80;61.40;;;;;;10504501;28;20616;-79
2023/07/13 20:03:52;;;;;;;3.13;2.37;;;24.70;62.80;;;;;;10504928;28;20213;-79
2023/07/13 20:08:56;;;;;;;3.50;2.63;;;24.70;63.10;;;;;;10505314;28;20197;-79
2023/07/13 20:13:58;;;;;;;4.80;2.50;;;24.70;61.40;;;;;;10512562;28;20766;-79
2023/07/13 20:19:00;;;;;;;3.40;2.50;;;24.70;63.70;;;;;;10502806;28;20209;-79
2023/07/13 20:24:14;;;;;;;4.20;2.70;;;24.60;64.60;;;;;;10505088;28;20205;-79
2023/07/13 20:29:18;;;;;;;3.00;2.80;;;24.50;64.40;;;;;;10512839;28;20197;-79
2023/07/13 20:34:23;;;;;;;2.10;1.90;;;24.50;62.60;;;;;;10499180;28;20252;-79
2023/07/13 20:39:26;;;;;;;4.30;2.30;;;24.40;64.90;;;;;;10515919;28;20738;-79
2023/07/13 20:44:29;;;;;;;2.43;2.23;;;24.40;64.30;;;;;;10520158;28;20229;-78
2023/07/13 20:49:31;;;;;;;2.30;2.20;;;24.40;63.40;;;;;;10495161;28;20251;-79
2023/07/13 20:54:34;;;;;;;2.63;2.33;;;24.30;63.00;;;;;;10481170;28;20236;-79
2023/07/13 20:59:36;;;;;;;4.93;2.57;;;24.20;61.60;;;;;;10494073;28;20887;-78
2023/07/13 21:04:38;;;;;;;3.13;2.53;;;24.10;63.50;;;;;;10497940;28;20609;-78
2023/07/13 21:09:42;;;;;;;2.63;2.43;;;23.90;62.80;;;;;;10495454;28;20202;-78
2023/07/13 21:14:44;;;;;;;2.60;2.40;;;23.80;63.30;;;;;;10481753;28;20243;-78
2023/07/13 21:19:46;;;;;;;2.70;2.50;;;23.60;63.00;;;;;;10483398;28;20201;-79
2023/07/13 21:24:50;;;;;;;3.17;2.67;;;23.50;63.60;;;;;;10497419;28;20209;-78
2023/07/13 21:29:53;;;;;;;2.97;2.77;;;23.40;64.00;;;;;;10496307;28;20649;-79
2023/07/13 21:34:55;;;;;;;3.57;2.60;;;23.20;64.00;;;;;;10499563;28;20251;-79
2023/07/13 21:39:59;;;;;;;2.80;2.60;;;23.10;64.30;;;;;;10498149;28;20204;-78
2023/07/13 21:45:01;;;;;;;6.53;2.63;;;23.10;65.80;;;;;;10498771;28;20283;-78
2023/07/13 21:50:04;;;;;;;2.57;2.30;;;23.00;66.30;;;;;;10496218;28;20898;-78
2023/07/13 21:55:15;;;;;;;3.07;2.87;;;23.00;66.90;;;;;;10497023;28;20265;-78
2023/07/13 22:00:20;;;;;;;3.87;2.90;;;22.90;66.00;;;;;;10496288;28;20189;-78
2023/07/13 22:05:23;;;;;;;2.10;2.00;;;22.80;67.60;;;;;;10498206;28;20204;-79
2023/07/13 22:10:26;;;;;;;2.90;2.60;;;22.70;67.00;;;;;;10480258;28;20215;-78
2023/07/13 22:15:29;;;;;;;2.40;2.30;;;22.70;66.40;;;;;;10488432;28;20708;-79
2023/07/13 22:20:32;;;;;;;2.43;2.23;;;22.60;67.70;;;;;;10495640;28;20197;-80
2023/07/13 22:25:35;;;;;;;3.60;2.80;;;22.60;67.30;;;;;;10496900;28;20445;-78
2023/07/13 22:30:38;;;;;;;2.60;2.40;;;22.60;67.20;;;;;;10497358;28;20644;-79
2023/07/13 22:35:40;;;;;;;2.47;2.27;;;22.60;66.40;;;;;;10489617;28;20233;-77
2023/07/13 22:40:45;;;;;;;5.47;2.73;;;22.50;66.50;;;;;;10498669;28;20745;-79
2023/07/13 22:45:49;;;;;;;2.47;2.20;;;22.40;67.00;;;;;;10499344;28;20227;-76
2023/07/13 22:50:52;;;;;;;3.20;2.53;;;22.30;67.30;;;;;;10503734;28;20223;-80
2023/07/13 22:55:56;;;;;;;2.80;2.50;;;22.30;67.50;;;;;;10488679;28;20261;-79
2023/07/13 23:01:00;;;;;;;3.37;2.23;;;22.20;67.60;;;;;;10507430;28;20225;-77
2023/07/13 23:06:03;;;;;;;2.33;2.13;;;22.20;68.00;;;;;;10507061;28;20205;-78
2023/07/13 23:11:10;;;;;;;3.23;2.20;;;22.10;66.20;;;;;;10503998;28;20225;-79
2023/07/13 23:16:13;;;;;;;2.30;2.20;;;22.00;67.90;;;;;;10496052;28;20205;-78
2023/07/13 23:21:17;;;;;;;2.50;2.30;;;22.00;68.80;;;;;;10479375;28;20235;-79
2023/07/13 23:26:24;;;;;;;2.77;2.50;;;22.00;68.00;;;;;;10497183;28;20193;-79
2023/07/13 23:31:29;;;;;;;3.67;2.37;;;21.90;68.30;;;;;;10511831;22;20593;-77
2023/07/13 23:36:31;;;;;;;2.40;2.20;;;21.90;69.30;;;;;;10429903;28;20259;-77
2023/07/13 23:41:34;;;;;;;2.47;2.10;;;21.90;68.80;;;;;;10448206;28;20225;-78
2023/07/13 23:46:41;;;;;;;2.50;2.30;;;21.80;69.30;;;;;;10446230;28;20237;-78
2023/07/13 23:51:43;;;;;;;4.63;2.13;;;21.80;69.10;;;;;;10447807;28;20233;-77
2023/07/13 23:56:48;;;;;;;4.50;2.20;;;21.80;70.20;;;;;;10447759;28;20547;-77
